sensor_id;sensor_type;location;lat;lon;timestamp;pressure;altitude;pressure_sealevel;temperature;humidity
35918;BME280;22011;59.912;30.300;2023-07-24T00:02:00;100253.09;;;17.43;65.40
35918;BME280;22011;59.912;30.300;2023-07-24T00:04:30;100249.50;;;17.49;65.89
35918;BME280;22011;59.912;30.300;2023-07-24T00:06:57;100248.69;;;17.48;65.60
35918;BME280;22011;59.912;30.300;2023-07-24T00:09:25;100243.47;;;17.53;65.28
35918;BME280;22011;59.912;30.300;2023-07-24T00:11:54;100245.31;;;17.53;65.45
35918;BME280;22011;59.912;30.300;2023-07-24T00:14:21;100241.44;;;17.49;65.40
35918;BME280;22011;59.912;30.300;2023-07-24T00:16:49;100234.56;;;17.53;65.19
35918;BME280;22011;59.912;30.300;2023-07-24T00:19:17;100241.44;;;17.49;65.26
35918;BME280;22011;59.912;30.300;2023-07-24T00:21:44;100235.81;;;17.50;65.14
35918;BME280;22011;59.912;30.300;2023-07-24T00:24:12;100233.38;;;17.24;65.97
35918;BME280;22011;59.912;30.300;2023-07-24T00:26:40;100230.88;;;17.04;66.83
35918;BME280;22011;59.912;30.300;2023-07-24T00:29:09;100231.09;;;17.03;67.60
35918;BME280;22011;59.912;30.300;2023-07-24T00:31:36;100228.50;;;16.89;67.61
35918;BME280;22011;59.912;30.300;2023-07-24T00:34:04;100227.06;;;16.87;67.69
35918;BME280;22011;59.912;30.300;2023-07-24T00:36:32;100226.16;;;16.99;66.82
35918;BME280;22011;59.912;30.300;2023-07-24T00:39:00;100228.50;;;16.89;67.33
35918;BME280;22011;59.912;30.300;2023-07-24T00:41:30;100228.72;;;17.13;66.29
35918;BME280;22011;59.912;30.300;2023-07-24T00:43:58;100236.53;;;16.96;66.94
35918;BME280;22011;59.912;30.300;2023-07-24T00:46:28;100228.50;;;16.89;67.40
35918;BME280;22011;59.912;30.300;2023-07-24T00:48:58;100217.53;;;17.16;66.18
35918;BME280;22011;59.912;30.300;2023-07-24T00:51:27;100225.31;;;17.24;65.69
35918;BME280;22011;59.912;30.300;2023-07-24T00:53:57;100225.47;;;17.29;65.53
35918;BME280;22011;59.912;30.300;2023-07-24T00:56:26;100226.50;;;17.28;65.78
35918;BME280;22011;59.912;30.300;2023-07-24T00:58:55;100226.50;;;17.28;65.48
35918;BME280;22011;59.912;30.300;2023-07-24T01:01:23;100218.22;;;17.29;65.77
35918;BME280;22011;59.912;30.300;2023-07-24T01:03:52;100219.78;;;16.94;67.13
35918;BME280;22011;59.912;30.300;2023-07-24T01:06:20;100221.09;;;16.85;67.30
35918;BME280;22011;59.912;30.300;2023-07-24T01:08:47;100216.81;;;16.77;68.14
35918;BME280;22011;59.912;30.300;2023-07-24T01:11:18;100218.22;;;16.80;68.46
35918;BME280;22011;59.912;30.300;2023-07-24T01:13:52;100219.44;;;16.84;68.65
35918;BME280;22011;59.912;30.300;2023-07-24T01:16:26;100219.44;;;16.84;68.74
35918;BME280;22011;59.912;30.300;2023-07-24T01:18:59;100225.00;;;16.89;68.25
35918;BME280;22011;59.912;30.300;2023-07-24T01:21:35;100219.16;;;16.92;68.32
35918;BME280;22011;59.912;30.300;2023-07-24T01:24:14;100217.53;;;16.91;69.05
35918;BME280;22011;59.912;30.300;2023-07-24T01:26:48;100219.88;;;16.81;68.47
35918;BME280;22011;59.912;30.300;2023-07-24T01:29:15;100214.41;;;16.94;67.86
35918;BME280;22011;59.912;30.300;2023-07-24T01:31:43;100210.31;;;16.85;68.02
35918;BME280;22011;59.912;30.300;2023-07-24T01:34:13;100211.19;;;16.79;68.23
35918;BME280;22011;59.912;30.300;2023-07-24T01:36:40;100212.06;;;16.73;68.58
35918;BME280;22011;59.912;30.300;2023-07-24T01:39:09;100209.16;;;16.74;68.81
35918;BME280;22011;59.912;30.300;2023-07-24T01:41:37;100203.56;;;16.76;68.62
35918;BME280;22011;59.912;30.300;2023-07-24T01:44:06;100206.94;;;16.96;67.98
35918;BME280;22011;59.912;30.300;2023-07-24T01:46:34;100200.28;;;16.98;67.38
35918;BME280;22011;59.912;30.300;2023-07-24T01:49:02;100204.00;;;16.97;67.34
35918;BME280;22011;59.912;30.300;2023-07-24T01:51:30;100208.50;;;16.79;67.72
35918;BME280;22011;59.912;30.300;2023-07-24T01:53:58;100201.97;;;16.68;68.29
35918;BME280;22011;59.912;30.300;2023-07-24T01:56:26;100197.03;;;16.65;68.34
35918;BME280;22011;59.912;30.300;2023-07-24T01:58:53;100197.63;;;16.67;68.50
35918;BME280;22011;59.912;30.300;2023-07-24T02:01:22;100199.66;;;16.72;68.62
35918;BME280;22011;59.912;30.300;2023-07-24T02:03:50;100204.41;;;16.76;67.80
35918;BME280;22011;59.912;30.300;2023-07-24T02:06:17;100196.53;;;16.75;67.94
35918;BME280;22011;59.912;30.300;2023-07-24T02:08:45;100198.84;;;16.71;67.82
35918;BME280;22011;59.912;30.300;2023-07-24T02:11:15;100198.63;;;16.73;68.19
35918;BME280;22011;59.912;30.300;2023-07-24T02:13:43;100199.22;;;16.75;68.27
35918;BME280;22011;59.912;30.300;2023-07-24T02:16:11;100197.81;;;16.72;68.00
35918;BME280;22011;59.912;30.300;2023-07-24T02:18:41;100206.25;;;16.76;68.06
35918;BME280;22011;59.912;30.300;2023-07-24T02:21:09;100198.03;;;16.71;68.00
35918;BME280;22011;59.912;30.300;2023-07-24T02:23:37;100198.84;;;16.71;67.98
35918;BME280;22011;59.912;30.300;2023-07-24T02:26:04;100198.47;;;16.67;67.88
35918;BME280;22011;59.912;30.300;2023-07-24T02:28:34;100198.84;;;16.71;67.93
35918;BME280;22011;59.912;30.300;2023-07-24T02:31:01;100205.50;;;16.68;68.06
35918;BME280;22011;59.912;30.300;2023-07-24T02:33:29;100192.66;;;16.64;67.97
35918;BME280;22011;59.912;30.300;2023-07-24T02:35:58;100197.25;;;16.63;68.68
35918;BME280;22011;59.912;30.300;2023-07-24T02:38:26;100191.25;;;16.61;68.30
35918;BME280;22011;59.912;30.300;2023-07-24T02:40:53;100186.09;;;16.60;68.22
35918;BME280;22011;59.912;30.300;2023-07-24T02:43:21;100187.97;;;16.59;68.67
35918;BME280;22011;59.912;30.300;2023-07-24T02:45:48;100196.84;;;16.60;68.79
35918;BME280;22011;59.912;30.300;2023-07-24T02:48:16;100194.13;;;16.91;67.40
35918;BME280;22011;59.912;30.300;2023-07-24T02:50:44;100193.09;;;16.67;68.01
35918;BME280;22011;59.912;30.300;2023-07-24T02:53:13;100196.22;;;16.64;68.50
35918;BME280;22011;59.912;30.300;2023-07-24T02:55:42;100191.44;;;16.66;68.46
35918;BME280;22011;59.912;30.300;2023-07-24T02:58:10;100192.25;;;16.67;68.20
35918;BME280;22011;59.912;30.300;2023-07-24T03:00:38;100194.50;;;16.70;68.05
35918;BME280;22011;59.912;30.300;2023-07-24T03:03:06;100190.56;;;16.73;68.26
35918;BME280;22011;59.912;30.300;2023-07-24T03:05:34;100190.34;;;16.74;68.39
35918;BME280;22011;59.912;30.300;2023-07-24T03:08:01;100185.34;;;16.78;68.35
35918;BME280;22011;59.912;30.300;2023-07-24T03:10:31;100190.06;;;16.82;68.34
35918;BME280;22011;59.912;30.300;2023-07-24T03:12:59;100191.31;;;16.80;68.04
35918;BME280;22011;59.912;30.300;2023-07-24T03:15:27;100191.09;;;16.81;68.56
35918;BME280;22011;59.912;30.300;2023-07-24T03:17:54;100186.94;;;16.85;68.21
35918;BME280;22011;59.912;30.300;2023-07-24T03:20:22;100186.13;;;16.85;67.88
35918;BME280;22011;59.912;30.300;2023-07-24T03:22:49;100189.63;;;16.85;68.04
35918;BME280;22011;59.912;30.300;2023-07-24T03:25:17;100184.03;;;16.87;68.03
35918;BME280;22011;59.912;30.300;2023-07-24T03:27:46;100186.28;;;16.90;68.00
35918;BME280;22011;59.912;30.300;2023-07-24T03:30:14;100182.38;;;16.86;68.26
35918;BME280;22011;59.912;30.300;2023-07-24T03:32:41;100184.03;;;16.87;67.97
35918;BME280;22011;59.912;30.300;2023-07-24T03:35:09;100190.00;;;16.89;68.14
35918;BME280;22011;59.912;30.300;2023-07-24T03:37:38;100190.19;;;16.94;67.92
35918;BME280;22011;59.912;30.300;2023-07-24T03:40:07;100187.66;;;16.99;68.30
35918;BME280;22011;59.912;30.300;2023-07-24T03:42:34;100187.31;;;17.14;67.14
35918;BME280;22011;59.912;30.300;2023-07-24T03:45:05;100187.31;;;17.14;68.11
35918;BME280;22011;59.912;30.300;2023-07-24T03:47:33;100185.31;;;17.46;66.36
35918;BME280;22011;59.912;30.300;2023-07-24T03:50:00;100191.84;;;17.56;66.38
35918;BME280;22011;59.912;30.300;2023-07-24T03:52:28;100190.28;;;17.67;65.96
35918;BME280;22011;59.912;30.300;2023-07-24T03:54:56;100189.22;;;17.68;65.53
35918;BME280;22011;59.912;30.300;2023-07-24T03:57:23;100187.34;;;17.69;65.93
35918;BME280;22011;59.912;30.300;2023-07-24T03:59:51;100187.72;;;17.72;65.81
35918;BME280;22011;59.912;30.300;2023-07-24T04:02:20;100191.16;;;17.61;66.33
35918;BME280;22011;59.912;30.300;2023-07-24T04:04:47;100180.38;;;17.43;66.70
35918;BME280;22011;59.912;30.300;2023-07-24T04:07:15;100185.53;;;17.44;66.72
35918;BME280;22011;59.912;30.300;2023-07-24T04:09:43;100183.81;;;17.50;66.88
35918;BME280;22011;59.912;30.300;2023-07-24T04:12:10;100181.72;;;17.52;66.53
35918;BME280;22011;59.912;30.300;2023-07-24T04:14:38;100175.91;;;17.55;66.59
35918;BME280;22011;59.912;30.300;2023-07-24T04:17:05;100174.41;;;17.59;66.51
35918;BME280;22011;59.912;30.300;2023-07-24T04:19:34;100173.75;;;17.93;65.93
35918;BME280;22011;59.912;30.300;2023-07-24T04:22:02;100179.13;;;18.12;64.82
35918;BME280;22011;59.912;30.300;2023-07-24T04:24:30;100173.19;;;18.21;64.56
35918;BME280;22011;59.912;30.300;2023-07-24T04:26:57;100167.22;;;18.31;64.13
35918;BME280;22011;59.912;30.300;2023-07-24T04:29:25;100173.34;;;18.38;63.73
35918;BME280;22011;59.912;30.300;2023-07-24T04:31:52;100177.34;;;18.47;63.62
35918;BME280;22011;59.912;30.300;2023-07-24T04:34:20;100178.09;;;18.54;63.37
35918;BME280;22011;59.912;30.300;2023-07-24T04:36:49;100178.13;;;18.66;63.52
35918;BME280;22011;59.912;30.300;2023-07-24T04:39:17;100184.94;;;18.69;62.98
35918;BME280;22011;59.912;30.300;2023-07-24T04:41:44;100172.59;;;18.73;62.78
35918;BME280;22011;59.912;30.300;2023-07-24T04:44:12;100180.97;;;18.71;62.96
35918;BME280;22011;59.912;30.300;2023-07-24T04:46:39;100170.84;;;18.67;62.93
35918;BME280;22011;59.912;30.300;2023-07-24T04:49:07;100169.91;;;18.73;62.65
35918;BME280;22011;59.912;30.300;2023-07-24T04:51:35;100173.91;;;18.82;62.56
35918;BME280;22011;59.912;30.300;2023-07-24T04:54:04;100165.09;;;18.75;63.26
35918;BME280;22011;59.912;30.300;2023-07-24T04:56:31;100175.91;;;18.63;63.56
35918;BME280;22011;59.912;30.300;2023-07-24T04:58:59;100175.78;;;18.70;62.90
35918;BME280;22011;59.912;30.300;2023-07-24T05:01:26;100168.75;;;18.69;62.84
35918;BME280;22011;59.912;30.300;2023-07-24T05:03:54;100163.34;;;18.69;63.34
35918;BME280;22011;59.912;30.300;2023-07-24T05:06:22;100168.63;;;18.75;62.97
35918;BME280;22011;59.912;30.300;2023-07-24T05:08:49;100160.63;;;18.80;62.33
35918;BME280;22011;59.912;30.300;2023-07-24T05:11:18;100164.28;;;19.09;61.98
35918;BME280;22011;59.912;30.300;2023-07-24T05:13:46;100154.88;;;19.23;60.83
35918;BME280;22011;59.912;30.300;2023-07-24T05:16:14;100162.53;;;19.26;60.64
35918;BME280;22011;59.912;30.300;2023-07-24T05:18:41;100154.06;;;19.35;60.60
35918;BME280;22011;59.912;30.300;2023-07-24T05:21:09;100146.78;;;19.35;60.40
35918;BME280;22011;59.912;30.300;2023-07-24T05:23:36;100149.50;;;19.12;61.17
35918;BME280;22011;59.912;30.300;2023-07-24T05:26:04;100146.22;;;19.10;61.71
35918;BME280;22011;59.912;30.300;2023-07-24T05:28:33;100144.44;;;19.15;61.61
35918;BME280;22011;59.912;30.300;2023-07-24T05:31:01;100144.91;;;19.24;60.80
35918;BME280;22011;59.912;30.300;2023-07-24T05:33:29;100146.91;;;19.28;60.59
35918;BME280;22011;59.912;30.300;2023-07-24T05:36:01;100140.84;;;19.73;59.97
35918;BME280;22011;59.912;30.300;2023-07-24T05:38:28;100138.63;;;19.70;59.02
35918;BME280;22011;59.912;30.300;2023-07-24T05:40:56;100131.75;;;19.79;58.69
35918;BME280;22011;59.912;30.300;2023-07-24T05:43:24;100146.28;;;19.62;59.00
35918;BME280;22011;59.912;30.300;2023-07-24T05:45:55;100145.94;;;19.46;60.06
35918;BME280;22011;59.912;30.300;2023-07-24T05:48:23;100146.06;;;19.40;59.70
35918;BME280;22011;59.912;30.300;2023-07-24T05:50:51;100135.19;;;19.75;58.73
35918;BME280;22011;59.912;30.300;2023-07-24T05:53:19;100124.88;;;19.88;57.81
35918;BME280;22011;59.912;30.300;2023-07-24T05:55:46;100136.97;;;19.98;57.50
35918;BME280;22011;59.912;30.300;2023-07-24T05:58:14;100143.03;;;20.05;57.18
35918;BME280;22011;59.912;30.300;2023-07-24T06:00:42;100131.72;;;20.08;56.91
35918;BME280;22011;59.912;30.300;2023-07-24T06:03:11;100132.66;;;20.13;56.87
35918;BME280;22011;59.912;30.300;2023-07-24T06:05:38;100131.94;;;19.89;57.31
35918;BME280;22011;59.912;30.300;2023-07-24T06:08:06;100130.16;;;19.95;57.17
35918;BME280;22011;59.912;30.300;2023-07-24T06:10:34;100130.47;;;19.99;56.93
35918;BME280;22011;59.912;30.300;2023-07-24T06:13:02;100139.75;;;20.03;57.19
35918;BME280;22011;59.912;30.300;2023-07-24T06:15:30;100130.69;;;20.25;55.72
35918;BME280;22011;59.912;30.300;2023-07-24T06:17:57;100122.41;;;20.44;55.10
35918;BME280;22011;59.912;30.300;2023-07-24T06:20:26;100128.47;;;20.51;55.27
35918;BME280;22011;59.912;30.300;2023-07-24T06:22:54;100123.41;;;20.26;55.93
35918;BME280;22011;59.912;30.300;2023-07-24T06:25:22;100125.94;;;20.16;56.05
35918;BME280;22011;59.912;30.300;2023-07-24T06:27:49;100123.91;;;20.23;55.35
35918;BME280;22011;59.912;30.300;2023-07-24T06:30:17;100122.88;;;20.41;54.57
35918;BME280;22011;59.912;30.300;2023-07-24T06:32:44;100132.56;;;20.53;54.18
35918;BME280;22011;59.912;30.300;2023-07-24T06:35:12;100125.09;;;20.77;52.82
35918;BME280;22011;59.912;30.300;2023-07-24T06:37:41;100129.97;;;20.80;52.83
35918;BME280;22011;59.912;30.300;2023-07-24T06:40:09;100125.69;;;20.63;53.13
35918;BME280;22011;59.912;30.300;2023-07-24T06:42:37;100116.97;;;20.77;52.92
35918;BME280;22011;59.912;30.300;2023-07-24T06:45:06;100124.44;;;21.26;51.67
35918;BME280;22011;59.912;30.300;2023-07-24T06:47:33;100121.25;;;21.50;51.36
35918;BME280;22011;59.912;30.300;2023-07-24T06:50:01;100117.19;;;21.53;51.40
35918;BME280;22011;59.912;30.300;2023-07-24T06:52:31;100118.53;;;21.50;50.98
35918;BME280;22011;59.912;30.300;2023-07-24T06:55:00;100115.81;;;21.50;51.35
35918;BME280;22011;59.912;30.300;2023-07-24T06:57:28;100115.81;;;21.50;51.27
35918;BME280;22011;59.912;30.300;2023-07-24T06:59:55;100111.16;;;21.46;51.31
35918;BME280;22011;59.912;30.300;2023-07-24T07:02:23;100103.03;;;21.46;51.61
35918;BME280;22011;59.912;30.300;2023-07-24T07:04:50;100109.06;;;21.53;51.36
35918;BME280;22011;59.912;30.300;2023-07-24T07:07:18;100096.09;;;21.55;51.53
35918;BME280;22011;59.912;30.300;2023-07-24T07:09:45;100092.94;;;21.63;51.20
35918;BME280;22011;59.912;30.300;2023-07-24T07:12:14;100107.16;;;21.75;50.85
35918;BME280;22011;59.912;30.300;2023-07-24T07:14:42;100093.16;;;21.83;49.71
35918;BME280;22011;59.912;30.300;2023-07-24T07:17:10;100097.34;;;21.69;50.03
35918;BME280;22011;59.912;30.300;2023-07-24T07:19:37;100106.88;;;21.50;50.85
35918;BME280;22011;59.912;30.300;2023-07-24T07:22:05;100109.81;;;21.27;51.62
35918;BME280;22011;59.912;30.300;2023-07-24T07:24:33;100104.16;;;21.28;51.76
35918;BME280;22011;59.912;30.300;2023-07-24T07:27:01;100108.94;;;21.43;51.79
35918;BME280;22011;59.912;30.300;2023-07-24T07:29:29;100106.16;;;21.60;51.72
35918;BME280;22011;59.912;30.300;2023-07-24T07:31:58;100100.50;;;21.61;51.08
35918;BME280;22011;59.912;30.300;2023-07-24T07:34:25;100096.66;;;21.57;51.17
35918;BME280;22011;59.912;30.300;2023-07-24T07:36:53;100096.34;;;21.32;51.89
35918;BME280;22011;59.912;30.300;2023-07-24T07:39:20;100100.25;;;21.41;51.93
35918;BME280;22011;59.912;30.300;2023-07-24T07:41:48;100093.25;;;21.45;51.65
35918;BME280;22011;59.912;30.300;2023-07-24T07:44:16;100088.25;;;21.59;51.11
35918;BME280;22011;59.912;30.300;2023-07-24T07:46:45;100094.88;;;21.68;51.11
35918;BME280;22011;59.912;30.300;2023-07-24T07:49:12;100094.44;;;21.76;51.10
35918;BME280;22011;59.912;30.300;2023-07-24T07:51:40;100095.81;;;21.78;50.77
35918;BME280;22011;59.912;30.300;2023-07-24T07:54:08;100090.09;;;22.02;50.21
35918;BME280;22011;59.912;30.300;2023-07-24T07:56:35;100097.16;;;22.03;50.41
35918;BME280;22011;59.912;30.300;2023-07-24T07:59:03;100104.78;;;21.57;51.19
35918;BME280;22011;59.912;30.300;2023-07-24T08:01:31;100102.97;;;21.02;52.63
35918;BME280;22011;59.912;30.300;2023-07-24T08:04:00;100111.69;;;20.87;53.68
35918;BME280;22011;59.912;30.300;2023-07-24T08:06:27;100098.31;;;20.81;53.29
35918;BME280;22011;59.912;30.300;2023-07-24T08:08:55;100109.09;;;20.76;53.05
35918;BME280;22011;59.912;30.300;2023-07-24T08:11:22;100108.13;;;20.48;52.36
35918;BME280;22011;59.912;30.300;2023-07-24T08:13:50;100106.44;;;20.31;53.05
35918;BME280;22011;59.912;30.300;2023-07-24T08:16:17;100115.50;;;20.08;52.68
35918;BME280;22011;59.912;30.300;2023-07-24T08:18:46;100131.84;;;19.84;53.34
35918;BME280;22011;59.912;30.300;2023-07-24T08:21:15;100132.72;;;19.73;53.75
35918;BME280;22011;59.912;30.300;2023-07-24T08:23:43;100124.91;;;19.60;53.97
35918;BME280;22011;59.912;30.300;2023-07-24T08:26:10;100135.59;;;19.55;55.23
35918;BME280;22011;59.912;30.300;2023-07-24T08:28:38;100125.34;;;19.69;54.56
35918;BME280;22011;59.912;30.300;2023-07-24T08:31:08;100124.63;;;19.73;54.42
35918;BME280;22011;59.912;30.300;2023-07-24T08:33:36;100138.63;;;19.70;55.33
35918;BME280;22011;59.912;30.300;2023-07-24T08:36:05;100131.22;;;19.66;56.18
35918;BME280;22011;59.912;30.300;2023-07-24T08:38:34;100138.56;;;19.30;59.16
35918;BME280;22011;59.912;30.300;2023-07-24T08:41:04;100141.41;;;19.00;60.65
35918;BME280;22011;59.912;30.300;2023-07-24T08:43:33;100143.88;;;18.90;61.67
35918;BME280;22011;59.912;30.300;2023-07-24T08:46:02;100155.59;;;18.60;66.44
35918;BME280;22011;59.912;30.300;2023-07-24T08:48:31;100141.19;;;18.25;69.28
35918;BME280;22011;59.912;30.300;2023-07-24T08:51:02;100146.50;;;18.02;69.73
35918;BME280;22011;59.912;30.300;2023-07-24T08:53:30;100145.41;;;17.91;70.62
35918;BME280;22011;59.912;30.300;2023-07-24T08:56:00;100141.38;;;17.82;70.42
35918;BME280;22011;59.912;30.300;2023-07-24T08:58:28;100145.06;;;17.69;69.82
35918;BME280;22011;59.912;30.300;2023-07-24T09:00:56;100144.22;;;17.69;70.85
35918;BME280;22011;59.912;30.300;2023-07-24T09:03:24;100138.63;;;17.70;70.95
35918;BME280;22011;59.912;30.300;2023-07-24T09:05:52;100139.81;;;18.04;70.16
35918;BME280;22011;59.912;30.300;2023-07-24T09:08:28;100139.22;;;18.32;70.50
35918;BME280;22011;59.912;30.300;2023-07-24T09:10:58;100141.38;;;18.12;70.65
35918;BME280;22011;59.912;30.300;2023-07-24T09:13:28;100145.47;;;18.14;70.40
35918;BME280;22011;59.912;30.300;2023-07-24T09:15:56;100138.63;;;18.30;69.97
35918;BME280;22011;59.912;30.300;2023-07-24T09:18:25;100146.16;;;18.51;70.20
35918;BME280;22011;59.912;30.300;2023-07-24T09:20:52;100128.59;;;18.95;69.59
35918;BME280;22011;59.912;30.300;2023-07-24T09:23:26;100131.06;;;19.09;70.04
35918;BME280;22011;59.912;30.300;2023-07-24T09:25:54;100124.25;;;19.18;66.90
35918;BME280;22011;59.912;30.300;2023-07-24T09:28:21;100127.03;;;19.35;66.15
35918;BME280;22011;59.912;30.300;2023-07-24T09:30:55;100125.69;;;19.72;67.84
35918;BME280;22011;59.912;30.300;2023-07-24T09:33:33;100124.78;;;19.43;66.75
35918;BME280;22011;59.912;30.300;2023-07-24T09:36:02;100124.34;;;19.35;65.50
35918;BME280;22011;59.912;30.300;2023-07-24T09:38:30;100120.72;;;19.29;65.96
35918;BME280;22011;59.912;30.300;2023-07-24T09:40:58;100129.16;;;19.33;64.66
35918;BME280;22011;59.912;30.300;2023-07-24T09:43:27;100138.81;;;19.17;66.16
35918;BME280;22011;59.912;30.300;2023-07-24T09:45:57;100137.97;;;19.40;65.99
35918;BME280;22011;59.912;30.300;2023-07-24T09:48:26;100145.50;;;19.14;64.54
35918;BME280;22011;59.912;30.300;2023-07-24T09:50:55;100146.91;;;19.05;61.87
35918;BME280;22011;59.912;30.300;2023-07-24T09:53:31;100141.75;;;18.92;64.04
35918;BME280;22011;59.912;30.300;2023-07-24T09:56:02;100146.88;;;18.58;66.04
35918;BME280;22011;59.912;30.300;2023-07-24T09:58:33;100146.38;;;18.38;65.29
35918;BME280;22011;59.912;30.300;2023-07-24T10:01:04;100144.13;;;18.35;66.42
35918;BME280;22011;59.912;30.300;2023-07-24T10:03:34;100144.59;;;18.32;67.09
35918;BME280;22011;59.912;30.300;2023-07-24T10:06:02;100153.34;;;18.16;67.03
35918;BME280;22011;59.912;30.300;2023-07-24T10:08:30;100150.31;;;17.94;67.13
35918;BME280;22011;59.912;30.300;2023-07-24T10:10:58;100147.94;;;17.86;69.09
35918;BME280;22011;59.912;30.300;2023-07-24T10:13:26;100153.66;;;17.78;69.94
35918;BME280;22011;59.912;30.300;2023-07-24T10:15:55;100158.28;;;17.89;70.93
35918;BME280;22011;59.912;30.300;2023-07-24T10:18:28;100155.53;;;18.07;70.30
35918;BME280;22011;59.912;30.300;2023-07-24T10:21:02;100152.66;;;18.20;71.13
35918;BME280;22011;59.912;30.300;2023-07-24T10:23:30;100143.47;;;18.10;70.43
35918;BME280;22011;59.912;30.300;2023-07-24T10:26:02;100147.69;;;18.06;71.32
35918;BME280;22011;59.912;30.300;2023-07-24T10:28:31;100139.78;;;18.34;70.97
35918;BME280;22011;59.912;30.300;2023-07-24T10:31:00;100135.84;;;18.07;71.06
35918;BME280;22011;59.912;30.300;2023-07-24T10:33:31;100138.31;;;18.08;71.07
35918;BME280;22011;59.912;30.300;2023-07-24T10:36:05;100130.00;;;18.10;71.52
35918;BME280;22011;59.912;30.300;2023-07-24T10:38:36;100126.97;;;18.18;70.89
35918;BME280;22011;59.912;30.300;2023-07-24T10:41:05;100123.81;;;18.21;71.17
35918;BME280;22011;59.912;30.300;2023-07-24T10:43:43;100127.63;;;18.43;71.66
35918;BME280;22011;59.912;30.300;2023-07-24T10:46:12;100125.69;;;18.20;71.53
35918;BME280;22011;59.912;30.300;2023-07-24T10:48:43;100124.34;;;18.41;71.36
35918;BME280;22011;59.912;30.300;2023-07-24T10:51:12;100122.53;;;18.65;69.86
35918;BME280;22011;59.912;30.300;2023-07-24T10:53:42;100128.84;;;19.06;68.51
35918;BME280;22011;59.912;30.300;2023-07-24T10:56:10;100123.38;;;19.41;67.00
35918;BME280;22011;59.912;30.300;2023-07-24T10:58:37;100117.16;;;19.80;66.88
35918;BME280;22011;59.912;30.300;2023-07-24T11:01:06;100111.78;;;20.25;65.15
35918;BME280;22011;59.912;30.300;2023-07-24T11:03:35;100105.00;;;20.73;63.75
35918;BME280;22011;59.912;30.300;2023-07-24T11:06:04;100099.56;;;21.12;61.74
35918;BME280;22011;59.912;30.300;2023-07-24T11:08:32;100099.81;;;21.27;60.50
35918;BME280;22011;59.912;30.300;2023-07-24T11:11:02;100094.69;;;21.31;61.71
35918;BME280;22011;59.912;30.300;2023-07-24T11:13:31;100101.69;;;21.27;60.46
35918;BME280;22011;59.912;30.300;2023-07-24T11:16:05;100103.13;;;20.96;60.22
35918;BME280;22011;59.912;30.300;2023-07-24T11:18:32;100097.97;;;20.55;60.72
35918;BME280;22011;59.912;30.300;2023-07-24T11:21:00;100103.19;;;20.62;61.87
35918;BME280;22011;59.912;30.300;2023-07-24T11:23:29;100101.19;;;20.24;63.28
35918;BME280;22011;59.912;30.300;2023-07-24T11:25:57;100100.84;;;20.20;62.64
35918;BME280;22011;59.912;30.300;2023-07-24T11:28:24;100102.00;;;20.08;63.33
35918;BME280;22011;59.912;30.300;2023-07-24T11:30:52;100100.38;;;20.23;63.78
35918;BME280;22011;59.912;30.300;2023-07-24T11:33:20;100089.78;;;20.05;63.35
35918;BME280;22011;59.912;30.300;2023-07-24T11:35:48;100092.44;;;19.88;64.34
35918;BME280;22011;59.912;30.300;2023-07-24T11:38:16;100098.91;;;19.87;63.86
35918;BME280;22011;59.912;30.300;2023-07-24T11:40:45;100088.72;;;20.06;61.83
35918;BME280;22011;59.912;30.300;2023-07-24T11:43:17;100092.50;;;20.22;62.53
35918;BME280;22011;59.912;30.300;2023-07-24T11:45:45;100092.56;;;19.65;60.52
35918;BME280;22011;59.912;30.300;2023-07-24T11:48:14;100088.69;;;19.89;61.38
35918;BME280;22011;59.912;30.300;2023-07-24T11:50:43;100087.06;;;19.48;60.99
35918;BME280;22011;59.912;30.300;2023-07-24T11:53:19;100088.22;;;19.64;60.68
35918;BME280;22011;59.912;30.300;2023-07-24T11:55:50;100091.13;;;19.91;58.90
35918;BME280;22011;59.912;30.300;2023-07-24T11:58:18;100089.78;;;20.22;58.15
35918;BME280;22011;59.912;30.300;2023-07-24T12:00:46;100092.84;;;20.76;56.05
35918;BME280;22011;59.912;30.300;2023-07-24T12:03:18;100086.22;;;20.67;56.01
35918;BME280;22011;59.912;30.300;2023-07-24T12:05:46;100088.34;;;20.65;54.50
35918;BME280;22011;59.912;30.300;2023-07-24T12:08:13;100090.56;;;20.68;53.24
35918;BME280;22011;59.912;30.300;2023-07-24T12:10:43;100099.91;;;20.77;53.33
35918;BME280;22011;59.912;30.300;2023-07-24T12:13:12;100090.50;;;20.84;51.74
35918;BME280;22011;59.912;30.300;2023-07-24T12:15:40;100088.75;;;20.73;51.65
35918;BME280;22011;59.912;30.300;2023-07-24T12:18:07;100091.56;;;20.62;52.62
35918;BME280;22011;59.912;30.300;2023-07-24T12:20:35;100099.69;;;20.45;52.84
35918;BME280;22011;59.912;30.300;2023-07-24T12:23:02;100090.53;;;20.34;52.33
35918;BME280;22011;59.912;30.300;2023-07-24T12:25:30;100094.03;;;20.46;53.06
35918;BME280;22011;59.912;30.300;2023-07-24T12:27:58;100083.44;;;20.62;49.88
35918;BME280;22011;59.912;30.300;2023-07-24T12:30:27;100090.72;;;20.78;49.79
35918;BME280;22011;59.912;30.300;2023-07-24T12:32:54;100080.00;;;20.88;50.56
35918;BME280;22011;59.912;30.300;2023-07-24T12:35:22;100074.66;;;20.93;50.92
35918;BME280;22011;59.912;30.300;2023-07-24T12:37:49;100078.06;;;21.22;50.01
35918;BME280;22011;59.912;30.300;2023-07-24T12:40:17;100079.34;;;21.19;49.44
35918;BME280;22011;59.912;30.300;2023-07-24T12:42:45;100082.66;;;21.43;47.66
35918;BME280;22011;59.912;30.300;2023-07-24T12:45:12;100076.25;;;21.11;48.33
35918;BME280;22011;59.912;30.300;2023-07-24T12:47:41;100084.31;;;21.23;47.33